sensor_id;sensor_type;location;lat;lon;timestamp;P1;durP1;ratioP1;P2;durP2;ratioP2
58643;SDS011;44411;49.994;8.660;2022-11-20T00:00:48;64.70;;;33.47;;
58643;SDS011;44411;49.994;8.660;2022-11-20T00:03:14;67.10;;;33.35;;
58643;SDS011;44411;49.994;8.660;2022-11-20T00:05:39;68.40;;;32.42;;
58643;SDS011;44411;49.994;8.660;2022-11-20T00:08:05;65.35;;;30.33;;
58643;SDS011;44411;49.994;8.660;2022-11-20T00:10:31;72.53;;;30.25;;
58643;SDS011;44411;49.994;8.660;2022-11-20T00:12:57;70.55;;;34.00;;
58643;SDS011;44411;49.994;8.660;2022-11-20T00:15:23;66.00;;;33.30;;
58643;SDS011;44411;49.994;8.660;2022-11-20T00:17:49;68.78;;;33.15;;
58643;SDS011;44411;49.994;8.660;2022-11-20T00:20:15;71.38;;;33.45;;
58643;SDS011;44411;49.994;8.660;2022-11-20T00:22:40;67.35;;;33.03;;
58643;SDS011;44411;49.994;8.660;2022-11-20T00:25:05;75.75;;;33.30;;
58643;SDS011;44411;49.994;8.660;2022-11-20T00:27:31;69.65;;;32.35;;
58643;SDS011;44411;49.994;8.660;2022-11-20T00:29:56;72.05;;;31.73;;
58643;SDS011;44411;49.994;8.660;2022-11-20T00:32:21;73.93;;;34.50;;
58643;SDS011;44411;49.994;8.660;2022-11-20T00:34:47;70.18;;;33.65;;
58643;SDS011;44411;49.994;8.660;2022-11-20T00:37:12;67.85;;;32.28;;
58643;SDS011;44411;49.994;8.660;2022-11-20T00:39:37;69.25;;;31.25;;
58643;SDS011;44411;49.994;8.660;2022-11-20T00:42:03;64.03;;;29.75;;
58643;SDS011;44411;49.994;8.660;2022-11-20T00:44:28;65.63;;;31.52;;
58643;SDS011;44411;49.994;8.660;2022-11-20T00:46:53;63.92;;;30.23;;
58643;SDS011;44411;49.994;8.660;2022-11-20T00:49:19;57.53;;;30.08;;
58643;SDS011;44411;49.994;8.660;2022-11-20T00:51:44;61.15;;;29.35;;
58643;SDS011;44411;49.994;8.660;2022-11-20T00:54:09;72.07;;;32.28;;
58643;SDS011;44411;49.994;8.660;2022-11-20T00:56:35;68.55;;;31.70;;
58643;SDS011;44411;49.994;8.660;2022-11-20T00:59:00;67.32;;;31.77;;
58643;SDS011;44411;49.994;8.660;2022-11-20T01:04:01;69.68;;;31.20;;
58643;SDS011;44411;49.994;8.660;2022-11-20T01:06:28;71.25;;;33.45;;
58643;SDS011;44411;49.994;8.660;2022-11-20T01:09:03;63.35;;;30.27;;
58643;SDS011;44411;49.994;8.660;2022-11-20T01:11:34;72.10;;;32.20;;
58643;SDS011;44411;49.994;8.660;2022-11-20T01:14:02;80.68;;;32.70;;
58643;SDS011;44411;49.994;8.660;2022-11-20T01:16:33;75.25;;;32.25;;
58643;SDS011;44411;49.994;8.660;2022-11-20T01:19:02;78.13;;;33.40;;
58643;SDS011;44411;49.994;8.660;2022-11-20T01:21:31;79.90;;;35.05;;
58643;SDS011;44411;49.994;8.660;2022-11-20T01:23:58;83.15;;;34.67;;
58643;SDS011;44411;49.994;8.660;2022-11-20T01:26:24;84.40;;;35.72;;
58643;SDS011;44411;49.994;8.660;2022-11-20T01:28:51;84.88;;;34.03;;
58643;SDS011;44411;49.994;8.660;2022-11-20T01:31:18;83.80;;;34.72;;
58643;SDS011;44411;49.994;8.660;2022-11-20T01:33:44;77.28;;;34.17;;
58643;SDS011;44411;49.994;8.660;2022-11-20T01:36:11;77.80;;;33.95;;
58643;SDS011;44411;49.994;8.660;2022-11-20T01:38:37;84.85;;;34.95;;
58643;SDS011;44411;49.994;8.660;2022-11-20T01:41:03;86.38;;;37.72;;
58643;SDS011;44411;49.994;8.660;2022-11-20T01:43:30;83.68;;;34.30;;
58643;SDS011;44411;49.994;8.660;2022-11-20T01:48:38;88.82;;;33.67;;
58643;SDS011;44411;49.994;8.660;2022-11-20T01:51:17;79.63;;;33.03;;
58643;SDS011;44411;49.994;8.660;2022-11-20T01:54:04;82.22;;;34.65;;
58643;SDS011;44411;49.994;8.660;2022-11-20T01:56:36;81.35;;;33.92;;
58643;SDS011;44411;49.994;8.660;2022-11-20T01:59:04;84.05;;;34.50;;
58643;SDS011;44411;49.994;8.660;2022-11-20T02:01:32;87.20;;;36.22;;
58643;SDS011;44411;49.994;8.660;2022-11-20T02:03:58;87.10;;;31.60;;
58643;SDS011;44411;49.994;8.660;2022-11-20T02:06:29;87.15;;;35.25;;
58643;SDS011;44411;49.994;8.660;2022-11-20T02:08:59;100.30;;;37.05;;
58643;SDS011;44411;49.994;8.660;2022-11-20T02:11:25;89.03;;;33.75;;
58643;SDS011;44411;49.994;8.660;2022-11-20T02:13:50;91.68;;;34.45;;
58643;SDS011;44411;49.994;8.660;2022-11-20T02:18:49;85.85;;;33.88;;
58643;SDS011;44411;49.994;8.660;2022-11-20T02:24:14;89.82;;;33.55;;
58643;SDS011;44411;49.994;8.660;2022-11-20T02:26:47;84.63;;;32.60;;
58643;SDS011;44411;49.994;8.660;2022-11-20T02:29:14;85.35;;;33.83;;
58643;SDS011;44411;49.994;8.660;2022-11-20T02:31:42;86.22;;;32.85;;
58643;SDS011;44411;49.994;8.660;2022-11-20T02:34:08;84.20;;;34.72;;
58643;SDS011;44411;49.994;8.660;2022-11-20T02:36:34;88.90;;;35.22;;
58643;SDS011;44411;49.994;8.660;2022-11-20T02:39:02;88.07;;;32.50;;
58643;SDS011;44411;49.994;8.660;2022-11-20T02:41:32;84.90;;;34.75;;
58643;SDS011;44411;49.994;8.660;2022-11-20T02:43:59;89.22;;;33.13;;
58643;SDS011;44411;49.994;8.660;2022-11-20T02:46:25;82.28;;;32.35;;
58643;SDS011;44411;49.994;8.660;2022-11-20T02:48:51;82.43;;;33.50;;
58643;SDS011;44411;49.994;8.660;2022-11-20T02:51:17;83.72;;;32.45;;
58643;SDS011;44411;49.994;8.660;2022-11-20T02:53:42;86.00;;;31.52;;
58643;SDS011;44411;49.994;8.660;2022-11-20T02:56:07;73.18;;;30.83;;
58643;SDS011;44411;49.994;8.660;2022-11-20T02:58:33;72.38;;;31.67;;
58643;SDS011;44411;49.994;8.660;2022-11-20T03:00:58;74.63;;;31.27;;
58643;SDS011;44411;49.994;8.660;2022-11-20T03:03:24;72.28;;;30.95;;
58643;SDS011;44411;49.994;8.660;2022-11-20T03:05:49;76.03;;;31.55;;
58643;SDS011;44411;49.994;8.660;2022-11-20T03:08:14;74.13;;;31.02;;
58643;SDS011;44411;49.994;8.660;2022-11-20T03:10:40;76.35;;;33.08;;
58643;SDS011;44411;49.994;8.660;2022-11-20T03:13:05;81.38;;;32.40;;
58643;SDS011;44411;49.994;8.660;2022-11-20T03:15:30;78.70;;;31.23;;
58643;SDS011;44411;49.994;8.660;2022-11-20T03:17:56;82.80;;;32.95;;
58643;SDS011;44411;49.994;8.660;2022-11-20T03:20:22;70.22;;;29.10;;
58643;SDS011;44411;49.994;8.660;2022-11-20T03:22:47;71.65;;;31.92;;
58643;SDS011;44411;49.994;8.660;2022-11-20T03:25:13;68.43;;;32.53;;
58643;SDS011;44411;49.994;8.660;2022-11-20T03:27:38;71.45;;;29.38;;
58643;SDS011;44411;49.994;8.660;2022-11-20T03:30:04;72.30;;;30.30;;
58643;SDS011;44411;49.994;8.660;2022-11-20T03:32:30;72.90;;;31.15;;
58643;SDS011;44411;49.994;8.660;2022-11-20T03:34:56;66.95;;;31.08;;
58643;SDS011;44411;49.994;8.660;2022-11-20T03:37:21;74.20;;;31.85;;
58643;SDS011;44411;49.994;8.660;2022-11-20T03:39:47;79.28;;;32.22;;
58643;SDS011;44411;49.994;8.660;2022-11-20T03:42:12;73.50;;;30.13;;
58643;SDS011;44411;49.994;8.660;2022-11-20T03:44:56;74.22;;;31.38;;
58643;SDS011;44411;49.994;8.660;2022-11-20T03:47:22;86.40;;;32.85;;
58643;SDS011;44411;49.994;8.660;2022-11-20T03:49:47;86.95;;;34.25;;
58643;SDS011;44411;49.994;8.660;2022-11-20T03:52:12;75.45;;;31.00;;
58643;SDS011;44411;49.994;8.660;2022-11-20T03:54:38;66.55;;;31.90;;
58643;SDS011;44411;49.994;8.660;2022-11-20T03:57:03;71.25;;;29.83;;
58643;SDS011;44411;49.994;8.660;2022-11-20T03:59:28;77.72;;;31.48;;
58643;SDS011;44411;49.994;8.660;2022-11-20T04:01:54;84.97;;;34.20;;
58643;SDS011;44411;49.994;8.660;2022-11-20T04:04:19;88.25;;;32.03;;
58643;SDS011;44411;49.994;8.660;2022-11-20T04:06:44;90.28;;;33.17;;
58643;SDS011;44411;49.994;8.660;2022-11-20T04:09:10;84.80;;;33.03;;
58643;SDS011;44411;49.994;8.660;2022-11-20T04:11:36;80.88;;;32.67;;
58643;SDS011;44411;49.994;8.660;2022-11-20T04:14:05;82.25;;;31.38;;
58643;SDS011;44411;49.994;8.660;2022-11-20T04:16:33;77.97;;;32.90;;
58643;SDS011;44411;49.994;8.660;2022-11-20T04:19:01;78.75;;;31.98;;
58643;SDS011;44411;49.994;8.660;2022-11-20T04:21:28;83.95;;;31.67;;
58643;SDS011;44411;49.994;8.660;2022-11-20T04:23:54;80.65;;;32.78;;
58643;SDS011;44411;49.994;8.660;2022-11-20T04:26:20;82.07;;;32.30;;
58643;SDS011;44411;49.994;8.660;2022-11-20T04:28:46;77.85;;;31.83;;
58643;SDS011;44411;49.994;8.660;2022-11-20T04:31:13;86.22;;;32.08;;
58643;SDS011;44411;49.994;8.660;2022-11-20T04:33:43;88.88;;;32.60;;
58643;SDS011;44411;49.994;8.660;2022-11-20T04:36:13;85.85;;;31.08;;
58643;SDS011;44411;49.994;8.660;2022-11-20T04:38:40;84.35;;;32.42;;
58643;SDS011;44411;49.994;8.660;2022-11-20T04:41:07;85.43;;;32.08;;
58643;SDS011;44411;49.994;8.660;2022-11-20T04:43:37;85.25;;;32.03;;
58643;SDS011;44411;49.994;8.660;2022-11-20T04:46:02;88.00;;;32.08;;
58643;SDS011;44411;49.994;8.660;2022-11-20T04:48:28;87.40;;;35.53;;
58643;SDS011;44411;49.994;8.660;2022-11-20T04:50:54;85.50;;;35.17;;
58643;SDS011;44411;49.994;8.660;2022-11-20T04:53:20;87.13;;;32.90;;
58643;SDS011;44411;49.994;8.660;2022-11-20T04:55:46;83.30;;;30.95;;
58643;SDS011;44411;49.994;8.660;2022-11-20T04:58:12;81.47;;;32.53;;
58643;SDS011;44411;49.994;8.660;2022-11-20T05:00:38;75.18;;;31.52;;
58643;SDS011;44411;49.994;8.660;2022-11-20T05:03:03;81.85;;;31.98;;
58643;SDS011;44411;49.994;8.660;2022-11-20T05:05:29;82.10;;;31.65;;
58643;SDS011;44411;49.994;8.660;2022-11-20T05:07:57;82.53;;;30.95;;
58643;SDS011;44411;49.994;8.660;2022-11-20T05:10:24;83.75;;;33.28;;
58643;SDS011;44411;49.994;8.660;2022-11-20T05:12:50;68.88;;;30.23;;
58643;SDS011;44411;49.994;8.660;2022-11-20T05:15:15;76.65;;;32.25;;
58643;SDS011;44411;49.994;8.660;2022-11-20T05:17:40;85.90;;;33.10;;
58643;SDS011;44411;49.994;8.660;2022-11-20T05:20:06;87.75;;;34.17;;
58643;SDS011;44411;49.994;8.660;2022-11-20T05:22:31;90.65;;;30.40;;
58643;SDS011;44411;49.994;8.660;2022-11-20T05:24:57;79.72;;;32.22;;
58643;SDS011;44411;49.994;8.660;2022-11-20T05:27:22;77.85;;;31.33;;
58643;SDS011;44411;49.994;8.660;2022-11-20T05:29:48;86.53;;;31.77;;
58643;SDS011;44411;49.994;8.660;2022-11-20T05:32:13;83.60;;;33.72;;
58643;SDS011;44411;49.994;8.660;2022-11-20T05:34:38;85.28;;;31.98;;
58643;SDS011;44411;49.994;8.660;2022-11-20T05:37:04;89.05;;;33.25;;
58643;SDS011;44411;49.994;8.660;2022-11-20T05:39:29;86.13;;;31.30;;
58643;SDS011;44411;49.994;8.660;2022-11-20T05:41:55;91.70;;;33.83;;
58643;SDS011;44411;49.994;8.660;2022-11-20T05:44:39;78.90;;;30.38;;
58643;SDS011;44411;49.994;8.660;2022-11-20T05:47:05;82.88;;;31.38;;
58643;SDS011;44411;49.994;8.660;2022-11-20T05:49:31;89.35;;;34.20;;
58643;SDS011;44411;49.994;8.660;2022-11-20T05:51:56;85.70;;;34.35;;
58643;SDS011;44411;49.994;8.660;2022-11-20T05:54:22;86.88;;;30.85;;
58643;SDS011;44411;49.994;8.660;2022-11-20T05:56:47;88.80;;;32.80;;
58643;SDS011;44411;49.994;8.660;2022-11-20T05:59:12;99.88;;;33.55;;
58643;SDS011;44411;49.994;8.660;2022-11-20T06:01:37;83.25;;;32.53;;
58643;SDS011;44411;49.994;8.660;2022-11-20T06:04:03;84.00;;;31.83;;
58643;SDS011;44411;49.994;8.660;2022-11-20T06:06:28;80.88;;;33.35;;
58643;SDS011;44411;49.994;8.660;2022-11-20T06:08:54;83.78;;;31.48;;
58643;SDS011;44411;49.994;8.660;2022-11-20T06:11:20;76.30;;;29.65;;
58643;SDS011;44411;49.994;8.660;2022-11-20T06:13:45;82.30;;;31.40;;
58643;SDS011;44411;49.994;8.660;2022-11-20T06:16:12;84.32;;;31.00;;
58643;SDS011;44411;49.994;8.660;2022-11-20T06:18:39;77.90;;;29.85;;
58643;SDS011;44411;49.994;8.660;2022-11-20T06:21:08;87.85;;;32.47;;
58643;SDS011;44411;49.994;8.660;2022-11-20T06:23:41;81.85;;;31.17;;
58643;SDS011;44411;49.994;8.660;2022-11-20T06:26:08;91.18;;;31.67;;
58643;SDS011;44411;49.994;8.660;2022-11-20T06:28:38;86.90;;;31.00;;
58643;SDS011;44411;49.994;8.660;2022-11-20T06:31:04;81.35;;;29.92;;
58643;SDS011;44411;49.994;8.660;2022-11-20T06:33:30;78.90;;;32.70;;
58643;SDS011;44411;49.994;8.660;2022-11-20T06:35:56;83.65;;;29.38;;
58643;SDS011;44411;49.994;8.660;2022-11-20T06:38:23;82.72;;;30.17;;
58643;SDS011;44411;49.994;8.660;2022-11-20T06:40:49;85.35;;;33.25;;
58643;SDS011;44411;49.994;8.660;2022-11-20T06:43:14;92.65;;;31.60;;
58643;SDS011;44411;49.994;8.660;2022-11-20T06:45:39;92.82;;;32.00;;
58643;SDS011;44411;49.994;8.660;2022-11-20T06:48:05;112.25;;;34.88;;
58643;SDS011;44411;49.994;8.660;2022-11-20T06:50:30;107.07;;;35.63;;
58643;SDS011;44411;49.994;8.660;2022-11-20T06:52:55;103.57;;;36.33;;
58643;SDS011;44411;49.994;8.660;2022-11-20T06:55:21;99.93;;;34.00;;
58643;SDS011;44411;49.994;8.660;2022-11-20T06:57:46;104.95;;;35.85;;
58643;SDS011;44411;49.994;8.660;2022-11-20T07:00:11;107.93;;;34.88;;
58643;SDS011;44411;49.994;8.660;2022-11-20T07:02:37;104.95;;;34.38;;
58643;SDS011;44411;49.994;8.660;2022-11-20T07:05:03;103.80;;;36.47;;
58643;SDS011;44411;49.994;8.660;2022-11-20T07:07:28;110.45;;;37.72;;
58643;SDS011;44411;49.994;8.660;2022-11-20T07:09:54;119.78;;;37.00;;
58643;SDS011;44411;49.994;8.660;2022-11-20T07:12:19;116.55;;;37.65;;
58643;SDS011;44411;49.994;8.660;2022-11-20T07:14:44;111.60;;;35.83;;
58643;SDS011;44411;49.994;8.660;2022-11-20T07:17:09;111.00;;;38.38;;
58643;SDS011;44411;49.994;8.660;2022-11-20T07:19:35;110.93;;;37.85;;
58643;SDS011;44411;49.994;8.660;2022-11-20T07:22:00;102.72;;;35.22;;
58643;SDS011;44411;49.994;8.660;2022-11-20T07:24:25;94.80;;;32.50;;
58643;SDS011;44411;49.994;8.660;2022-11-20T07:26:51;93.57;;;32.85;;
58643;SDS011;44411;49.994;8.660;2022-11-20T07:29:16;91.07;;;33.13;;
58643;SDS011;44411;49.994;8.660;2022-11-20T07:31:42;95.05;;;33.92;;
58643;SDS011;44411;49.994;8.660;2022-11-20T07:34:07;92.57;;;31.60;;
58643;SDS011;44411;49.994;8.660;2022-11-20T07:36:33;98.20;;;32.80;;
58643;SDS011;44411;49.994;8.660;2022-11-20T07:38:59;98.07;;;32.55;;
58643;SDS011;44411;49.994;8.660;2022-11-20T07:41:24;92.88;;;31.95;;
58643;SDS011;44411;49.994;8.660;2022-11-20T07:43:49;97.10;;;33.33;;
58643;SDS011;44411;49.994;8.660;2022-11-20T07:46:14;98.80;;;33.30;;
58643;SDS011;44411;49.994;8.660;2022-11-20T07:48:40;95.25;;;33.65;;
58643;SDS011;44411;49.994;8.660;2022-11-20T07:51:05;98.13;;;31.73;;
58643;SDS011;44411;49.994;8.660;2022-11-20T07:53:30;111.03;;;34.83;;
58643;SDS011;44411;49.994;8.660;2022-11-20T07:55:59;93.63;;;33.28;;
58643;SDS011;44411;49.994;8.660;2022-11-20T07:58:25;92.33;;;29.70;;
58643;SDS011;44411;49.994;8.660;2022-11-20T08:00:51;90.25;;;31.85;;
58643;SDS011;44411;49.994;8.660;2022-11-20T08:03:16;97.90;;;31.75;;
58643;SDS011;44411;49.994;8.660;2022-11-20T08:05:42;97.68;;;32.15;;
58643;SDS011;44411;49.994;8.660;2022-11-20T08:08:07;89.65;;;31.02;;
58643;SDS011;44411;49.994;8.660;2022-11-20T08:10:32;81.93;;;29.45;;
58643;SDS011;44411;49.994;8.660;2022-11-20T08:12:58;102.35;;;35.95;;
58643;SDS011;44411;49.994;8.660;2022-11-20T08:15:47;96.25;;;34.40;;
58643;SDS011;44411;49.994;8.660;2022-11-20T08:18:15;92.63;;;32.65;;
58643;SDS011;44411;49.994;8.660;2022-11-20T08:20:40;89.13;;;33.97;;
58643;SDS011;44411;49.994;8.660;2022-11-20T08:23:06;90.03;;;34.03;;
58643;SDS011;44411;49.994;8.660;2022-11-20T08:25:33;70.25;;;27.45;;
58643;SDS011;44411;49.994;8.660;2022-11-20T08:28:01;86.28;;;30.67;;
58643;SDS011;44411;49.994;8.660;2022-11-20T08:30:28;88.63;;;31.75;;
58643;SDS011;44411;49.994;8.660;2022-11-20T08:32:54;87.53;;;31.50;;
58643;SDS011;44411;49.994;8.660;2022-11-20T08:35:25;95.70;;;34.35;;
58643;SDS011;44411;49.994;8.660;2022-11-20T08:37:51;101.25;;;34.47;;
58643;SDS011;44411;49.994;8.660;2022-11-20T08:40:16;97.13;;;35.55;;
58643;SDS011;44411;49.994;8.660;2022-11-20T08:42:48;88.03;;;31.20;;
58643;SDS011;44411;49.994;8.660;2022-11-20T08:45:14;84.68;;;29.70;;
58643;SDS011;44411;49.994;8.660;2022-11-20T08:47:40;83.00;;;31.45;;
58643;SDS011;44411;49.994;8.660;2022-11-20T08:50:07;89.25;;;33.45;;
58643;SDS011;44411;49.994;8.660;2022-11-20T08:52:33;88.32;;;33.20;;
58643;SDS011;44411;49.994;8.660;2022-11-20T08:54:58;67.30;;;26.13;;
58643;SDS011;44411;49.994;8.660;2022-11-20T08:57:23;79.22;;;28.48;;
58643;SDS011;44411;49.994;8.660;2022-11-20T08:59:49;59.53;;;25.77;;
58643;SDS011;44411;49.994;8.660;2022-11-20T09:02:14;60.33;;;28.42;;
58643;SDS011;44411;49.994;8.660;2022-11-20T09:04:40;63.28;;;27.25;;
58643;SDS011;44411;49.994;8.660;2022-11-20T09:07:05;63.15;;;25.05;;
58643;SDS011;44411;49.994;8.660;2022-11-20T09:09:31;52.75;;;23.00;;
58643;SDS011;44411;49.994;8.660;2022-11-20T09:11:57;62.25;;;25.77;;
58643;SDS011;44411;49.994;8.660;2022-11-20T09:14:22;59.42;;;26.08;;
58643;SDS011;44411;49.994;8.660;2022-11-20T09:16:53;61.10;;;26.88;;
58643;SDS011;44411;49.994;8.660;2022-11-20T09:19:19;55.50;;;25.60;;
58643;SDS011;44411;49.994;8.660;2022-11-20T09:21:44;52.45;;;24.70;;
58643;SDS011;44411;49.994;8.660;2022-11-20T09:24:09;43.00;;;22.65;;
58643;SDS011;44411;49.994;8.660;2022-11-20T09:26:35;45.03;;;23.08;;
58643;SDS011;44411;49.994;8.660;2022-11-20T09:29:00;46.75;;;22.73;;
58643;SDS011;44411;49.994;8.660;2022-11-20T09:31:25;49.70;;;24.83;;
58643;SDS011;44411;49.994;8.660;2022-11-20T09:33:51;42.40;;;21.60;;
58643;SDS011;44411;49.994;8.660;2022-11-20T09:36:16;60.65;;;27.70;;
58643;SDS011;44411;49.994;8.660;2022-11-20T09:38:43;51.20;;;25.30;;
58643;SDS011;44411;49.994;8.660;2022-11-20T09:41:15;48.08;;;23.85;;
58643;SDS011;44411;49.994;8.660;2022-11-20T09:43:58;43.38;;;21.80;;
58643;SDS011;44411;49.994;8.660;2022-11-20T09:46:47;39.17;;;22.10;;
58643;SDS011;44411;49.994;8.660;2022-11-20T09:49:28;40.97;;;22.23;;
58643;SDS011;44411;49.994;8.660;2022-11-20T09:54:48;53.30;;;26.23;;
58643;SDS011;44411;49.994;8.660;2022-11-20T09:57:19;48.35;;;24.65;;
58643;SDS011;44411;49.994;8.660;2022-11-20T09:59:58;50.72;;;26.30;;
58643;SDS011;44411;49.994;8.660;2022-11-20T10:02:30;54.65;;;25.27;;
58643;SDS011;44411;49.994;8.660;2022-11-20T10:05:15;52.85;;;25.42;;
58643;SDS011;44411;49.994;8.660;2022-11-20T10:19:15;48.78;;;27.30;;
58643;SDS011;44411;49.994;8.660;2022-11-20T10:27:50;58.65;;;29.27;;
58643;SDS011;44411;49.994;8.660;2022-11-20T10:30:24;73.22;;;38.33;;
58643;SDS011;44411;49.994;8.660;2022-11-20T10:33:12;55.80;;;28.45;;
58643;SDS011;44411;49.994;8.660;2022-11-20T10:35:48;72.45;;;37.72;;
58643;SDS011;44411;49.994;8.660;2022-11-20T10:40:55;61.95;;;27.67;;
58643;SDS011;44411;49.994;8.660;2022-11-20T10:43:44;45.47;;;23.38;;
58643;SDS011;44411;49.994;8.660;2022-11-20T10:46:15;57.67;;;28.35;;
58643;SDS011;44411;49.994;8.660;2022-11-20T10:48:42;45.17;;;22.45;;
58643;SDS011;44411;49.994;8.660;2022-11-20T10:54:30;56.50;;;28.50;;
58643;SDS011;44411;49.994;8.660;2022-11-20T11:05:40;50.13;;;26.30;;
58643;SDS011;44411;49.994;8.660;2022-11-20T11:08:12;53.47;;;26.30;;
58643;SDS011;44411;49.994;8.660;2022-11-20T11:10:51;61.47;;;31.73;;
58643;SDS011;44411;49.994;8.660;2022-11-20T11:13:23;63.67;;;31.30;;
58643;SDS011;44411;49.994;8.660;2022-11-20T11:15:51;57.75;;;28.23;;
58643;SDS011;44411;49.994;8.660;2022-11-20T11:18:23;50.05;;;24.00;;
58643;SDS011;44411;49.994;8.660;2022-11-20T11:20:57;58.85;;;26.75;;
58643;SDS011;44411;49.994;8.660;2022-11-20T11:23:34;52.95;;;26.65;;
58643;SDS011;44411;49.994;8.660;2022-11-20T11:26:03;60.35;;;35.72;;
58643;SDS011;44411;49.994;8.660;2022-11-20T11:28:32;68.53;;;39.42;;
58643;SDS011;44411;49.994;8.660;2022-11-20T11:30:58;64.20;;;33.95;;
58643;SDS011;44411;49.994;8.660;2022-11-20T11:33:27;66.40;;;34.58;;
58643;SDS011;44411;49.994;8.660;2022-11-20T11:38:32;59.17;;;30.38;;
58643;SDS011;44411;49.994;8.660;2022-11-20T11:41:01;73.35;;;38.53;;
58643;SDS011;44411;49.994;8.660;2022-11-20T11:43:32;70.13;;;32.70;;
58643;SDS011;44411;49.994;8.660;2022-11-20T11:46:24;61.40;;;29.17;;
58643;SDS011;44411;49.994;8.660;2022-11-20T11:48:57;71.47;;;32.17;;
58643;SDS011;44411;49.994;8.660;2022-11-20T11:51:29;64.32;;;31.38;;
58643;SDS011;44411;49.994;8.660;2022-11-20T11:54:03;75.68;;;38.60;;
58643;SDS011;44411;49.994;8.660;2022-11-20T11:56:39;64.90;;;30.67;;
58643;SDS011;44411;49.994;8.660;2022-11-20T11:59:04;61.13;;;31.13;;
58643;SDS011;44411;49.994;8.660;2022-11-20T12:04:44;64.97;;;31.35;;
58643;SDS011;44411;49.994;8.660;2022-11-20T12:07:15;59.05;;;29.23;;
58643;SDS011;44411;49.994;8.660;2022-11-20T12:09:48;57.78;;;27.60;;
58643;SDS011;44411;49.994;8.660;2022-11-20T12:12:20;66.55;;;32.88;;
58643;SDS011;44411;49.994;8.660;2022-11-20T12:14:52;71.25;;;32.35;;
58643;SDS011;44411;49.994;8.660;2022-11-20T12:17:20;71.68;;;32.92;;
58643;SDS011;44411;49.994;8.660;2022-11-20T12:19:45;65.45;;;32.67;;
58643;SDS011;44411;49.994;8.660;2022-11-20T12:25:20;60.25;;;31.23;;
58643;SDS011;44411;49.994;8.660;2022-11-20T12:30:26;67.85;;;32.17;;
58643;SDS011;44411;49.994;8.660;2022-11-20T12:35:36;52.80;;;28.02;;
58643;SDS011;44411;49.994;8.660;2022-11-20T12:47:42;42.97;;;23.52;;
58643;SDS011;44411;49.994;8.660;2022-11-20T12:59:12;40.10;;;21.98;;
58643;SDS011;44411;49.994;8.660;2022-11-20T13:07:34;46.42;;;25.20;;
58643;SDS011;44411;49.994;8.660;2022-11-20T13:10:01;42.17;;;23.58;;
58643;SDS011;44411;49.994;8.660;2022-11-20T13:12:44;42.65;;;26.42;;
58643;SDS011;44411;49.994;8.660;2022-11-20T13:18:00;53.30;;;27.65;;
58643;SDS011;44411;49.994;8.660;2022-11-20T13:20:31;53.05;;;28.67;;
58643;SDS011;44411;49.994;8.660;2022-11-20T13:22:58;55.38;;;28.52;;
58643;SDS011;44411;49.994;8.660;2022-11-20T13:25:25;56.83;;;29.98;;
58643;SDS011;44411;49.994;8.660;2022-11-20T13:27:53;55.72;;;29.10;;
58643;SDS011;44411;49.994;8.660;2022-11-20T13:30:21;54.38;;;27.92;;
58643;SDS011;44411;49.994;8.660;2022-11-20T13:32:52;49.15;;;27.45;;
58643;SDS011;44411;49.994;8.660;2022-11-20T13:35:54;48.25;;;26.38;;
58643;SDS011;44411;49.994;8.660;2022-11-20T13:38:19;53.10;;;27.90;;
58643;SDS011;44411;49.994;8.660;2022-11-20T13:40:58;45.97;;;26.02;;
58643;SDS011;44411;49.994;8.660;2022-11-20T13:43:44;49.38;;;27.15;;
58643;SDS011;44411;49.994;8.660;2022-11-20T13:46:12;46.95;;;23.75;;
58643;SDS011;44411;49.994;8.660;2022-11-20T13:48:41;45.15;;;24.67;;
58643;SDS011;44411;49.994;8.660;2022-11-20T13:51:12;44.95;;;24.23;;
58643;SDS011;44411;49.994;8.660;2022-11-20T14:01:58;52.53;;;28.05;;
58643;SDS011;44411;49.994;8.660;2022-11-20T14:04:27;47.58;;;25.30;;
58643;SDS011;44411;49.994;8.660;2022-11-20T14:06:57;49.50;;;25.98;;
58643;SDS011;44411;49.994;8.660;2022-11-20T14:09:30;58.53;;;26.40;;
58643;SDS011;44411;49.994;8.660;2022-11-20T14:11:57;57.33;;;27.00;;
58643;SDS011;44411;49.994;8.660;2022-11-20T14:14:27;57.78;;;28.15;;
58643;SDS011;44411;49.994;8.660;2022-11-20T14:17:17;54.22;;;26.15;;
58643;SDS011;44411;49.994;8.660;2022-11-20T14:19:45;51.90;;;25.83;;
58643;SDS011;44411;49.994;8.660;2022-11-20T14:25:00;54.22;;;25.67;;
58643;SDS011;44411;49.994;8.660;2022-11-20T14:27:53;57.08;;;26.48;;
58643;SDS011;44411;49.994;8.660;2022-11-20T14:30:21;53.63;;;24.65;;
58643;SDS011;44411;49.994;8.660;2022-11-20T14:32:53;55.28;;;26.00;;
58643;SDS011;44411;49.994;8.660;2022-11-20T14:35:24;54.65;;;25.58;;
58643;SDS011;44411;49.994;8.660;2022-11-20T14:37:52;52.30;;;25.63;;
58643;SDS011;44411;49.994;8.660;2022-11-20T14:42:47;45.65;;;24.85;;
58643;SDS011;44411;49.994;8.660;2022-11-20T14:45:12;50.03;;;24.73;;
58643;SDS011;44411;49.994;8.660;2022-11-20T14:47:39;51.33;;;27.20;;
58643;SDS011;44411;49.994;8.660;2022-11-20T14:50:07;45.90;;;25.92;;
58643;SDS011;44411;49.994;8.660;2022-11-20T14:52:39;44.35;;;25.05;;
58643;SDS011;44411;49.994;8.660;2022-11-20T14:55:24;47.83;;;25.15;;
58643;SDS011;44411;49.994;8.660;2022-11-20T14:57:54;52.47;;;26.42;;
58643;SDS011;44411;49.994;8.660;2022-11-20T15:00:21;48.80;;;24.80;;
58643;SDS011;44411;49.994;8.660;2022-11-20T15:02:48;45.33;;;26.23;;
58643;SDS011;44411;49.994;8.660;2022-11-20T15:05:15;46.72;;;25.63;;
58643;SDS011;44411;49.994;8.660;2022-11-20T15:07:43;49.22;;;24.48;;
58643;SDS011;44411;49.994;8.660;2022-11-20T15:12:46;51.42;;;25.17;;
58643;SDS011;44411;49.994;8.660;2022-11-20T15:15:15;44.90;;;22.40;;
58643;SDS011;44411;49.994;8.660;2022-11-20T15:17:45;51.08;;;24.52;;
58643;SDS011;44411;49.994;8.660;2022-11-20T15:20:14;49.13;;;23.70;;
58643;SDS011;44411;49.994;8.660;2022-11-20T15:22:41;50.13;;;25.35;;
58643;SDS011;44411;49.994;8.660;2022-11-20T15:25:11;50.95;;;26.83;;
58643;SDS011;44411;49.994;8.660;2022-11-20T15:27:40;50.10;;;26.10;;
58643;SDS011;44411;49.994;8.660;2022-11-20T15:30:17;51.58;;;26.60;;
58643;SDS011;44411;49.994;8.660;2022-11-20T15:32:43;47.92;;;25.38;;
58643;SDS011;44411;49.994;8.660;2022-11-20T15:35:10;47.58;;;25.65;;
58643;SDS011;44411;49.994;8.660;2022-11-20T15:37:36;51.20;;;26.23;;
58643;SDS011;44411;49.994;8.660;2022-11-20T15:40:02;50.70;;;25.70;;
58643;SDS011;44411;49.994;8.660;2022-11-20T15:42:28;53.70;;;25.50;;
58643;SDS011;44411;49.994;8.660;2022-11-20T15:44:54;43.78;;;24.83;;
58643;SDS011;44411;49.994;8.660;2022-11-20T15:47:20;52.45;;;27.83;;
58643;SDS011;44411;49.994;8.660;2022-11-20T15:49:58;48.55;;;24.77;;
58643;SDS011;44411;49.994;8.660;2022-11-20T15:52:24;51.22;;;24.17;;
58643;SDS011;44411;49.994;8.660;2022-11-20T15:54:49;46.50;;;24.77;;
58643;SDS011;44411;49.994;8.660;2022-11-20T15:57:15;51.28;;;24.80;;
58643;SDS011;44411;49.994;8.660;2022-11-20T15:59:40;48.45;;;24.98;;
58643;SDS011;44411;49.994;8.660;2022-11-20T16:02:13;45.92;;;23.83;;
58643;SDS011;44411;49.994;8.660;2022-11-20T16:04:39;50.28;;;24.90;;
58643;SDS011;44411;49.994;8.660;2022-11-20T16:07:04;45.45;;;24.08;;
58643;SDS011;44411;49.994;8.660;2022-11-20T16:09:30;48.63;;;27.02;;